Time;durP1;ratioP1;P1;durP2;ratioP2;P2;SDS_P1;SDS_P2;PMS_P1;PMS_P2;Temp;Humidity;BMP_temperature;BMP_pressure;BME280_temperature;BME280_humidity;BME280_pressure;Samples;Min_cycle;Max_cycle;Signal;HPM_P1;HPM_P2
2021/07/12 00:02:21;;;;;;;;;5.00;3.67;;;;;19.89;56.54;100857.91;6176716;22;45379;-88
2021/07/12 00:04:46;;;;;;;;;3.67;3.67;;;;;19.88;56.46;100850.09;6177529;22;45635;-89
2021/07/12 00:07:11;;;;;;;;;3.00;2.00;;;;;19.87;56.60;100843.97;6177550;23;45286;-89
2021/07/12 00:09:37;;;;;;;;;3.00;3.00;;;;;19.87;56.72;100843.97;6177290;23;45166;-88
2021/07/12 00:12:03;;;;;;;;;2.67;2.00;;;;;19.87;56.47;100833.41;6175054;23;45705;-88
2021/07/12 00:14:29;;;;;;;;;5.33;4.00;;;;;19.87;56.87;100830.75;6176789;22;45166;-89
2021/07/12 00:16:54;;;;;;;;;4.00;4.00;;;;;19.84;56.79;100822.22;6177086;23;45398;-89
2021/07/12 00:19:20;;;;;;;;;2.00;2.00;;;;;19.80;56.72;100818.97;6174925;23;47098;-88
2021/07/12 00:21:46;;;;;;;;;2.67;2.67;;;;;19.80;56.69;100820.81;6175122;23;45355;-88
2021/07/12 00:24:12;;;;;;;;;3.00;3.00;;;;;19.77;56.71;100806.84;6176625;23;45322;-89
2021/07/12 00:26:37;;;;;;;;;6.00;4.00;;;;;19.77;56.92;100804.22;6177109;23;45332;-88
2021/07/12 00:29:03;;;;;;;;;5.67;3.00;;;;;19.79;56.92;100790.03;6174788;23;47214;-88
2021/07/12 00:31:29;;;;;;;;;3.00;3.00;;;;;19.76;56.97;100791.97;6176675;23;45328;-88
2021/07/12 00:33:54;;;;;;;;;3.00;3.00;;;;;19.74;57.16;100793.91;6175097;23;45191;-88
2021/07/12 00:36:20;;;;;;;;;5.00;5.00;;;;;19.72;57.41;100794.97;6177398;23;45314;-89
2021/07/12 00:38:45;;;;;;;;;3.00;3.00;;;;;19.67;57.14;100786.53;6175012;23;46703;-89
2021/07/12 00:41:10;;;;;;;;;5.00;3.00;;;;;19.67;57.30;100790.00;6177016;23;45241;-89
2021/07/12 00:43:37;;;;;;;;;5.00;3.00;;;;;19.60;57.75;100780.84;6174964;23;44740;-89
2021/07/12 00:46:03;;;;;;;;;3.33;3.33;;;;;19.55;57.41;100783.00;6175146;23;45299;-88
2021/07/12 00:48:28;;;;;;;;;4.00;3.00;;;;;19.58;57.49;100822.38;6176695;23;45227;-89
2021/07/12 00:50:55;;;;;;;;;4.00;4.00;;;;;19.56;57.41;100848.88;6175045;23;45293;-89
2021/07/12 00:53:20;;;;;;;;;4.67;3.33;;;;;19.52;57.45;100834.22;6175289;23;45322;-88
2021/07/12 00:55:49;;;;;;;;;3.00;3.00;;;;;19.53;57.75;100835.88;6176633;23;45418;-88
2021/07/12 00:58:24;;;;;;;;;3.67;3.67;;;;;19.52;57.63;100838.66;6175090;23;47302;-89
2021/07/12 01:00:53;;;;;;;;;3.00;2.33;;;;;19.49;58.22;100843.19;6176445;23;45411;-89
2021/07/12 01:03:19;;;;;;;;;3.00;3.00;;;;;19.45;57.68;100836.44;6177046;23;45312;-88
2021/07/12 01:05:45;;;;;;;;;4.00;4.00;;;;;19.44;57.54;100836.56;6176641;23;45385;-89
2021/07/12 01:08:11;;;;;;;;;4.00;4.00;;;;;19.42;58.12;100836.66;6176853;23;45437;-89
2021/07/12 01:10:37;;;;;;;;;5.00;4.00;;;;;19.42;57.99;100844.59;6176623;23;45297;-88
2021/07/12 01:13:21;;;;;;;;;4.00;4.00;;;;;19.40;58.12;100828.03;6177177;23;45506;-88
2021/07/12 01:16:05;;;;;;;;;3.33;3.33;;;;;19.38;57.92;100821.19;6177015;23;45289;-88
2021/07/12 01:19:22;;;;;;;;;3.00;3.00;;;;;19.34;58.49;100809.97;6174600;23;46519;-88
2021/07/12 01:22:12;;;;;;;;;3.33;2.67;;;;;19.33;58.17;100797.75;6213559;22;45450;-88
2021/07/12 01:24:56;;;;;;;;;3.00;3.00;;;;;19.32;58.29;100788.16;6239702;22;45346;-88
2021/07/12 01:27:30;;;;;;;;;4.00;4.00;;;;;19.30;58.75;100777.72;6238831;22;45527;-89
2021/07/12 01:30:22;;;;;;;;;3.00;3.00;;;;;19.29;58.80;100772.53;6240012;22;45247;-88
2021/07/12 01:33:12;;;;;;;;;3.00;3.00;;;;;19.29;58.86;100770.75;6215288;22;45669;-88
2021/07/12 01:35:47;;;;;;;;;4.00;4.00;;;;;19.28;58.74;100762.94;6241015;22;45355;-89
2021/07/12 01:38:32;;;;;;;;;4.00;3.67;;;;;19.22;59.12;100751.88;6241290;22;45275;-88
2021/07/12 01:41:06;;;;;;;;;3.67;3.67;;;;;19.28;59.15;100755.03;6240670;22;47349;-89
2021/07/12 01:44:00;;;;;;;;;3.00;3.00;;;;;19.25;59.28;100756.09;6240986;22;45624;-89
2021/07/12 01:46:39;;;;;;;;;4.00;4.00;;;;;19.25;59.08;100748.19;6239782;22;45505;-88
2021/07/12 01:49:12;;;;;;;;;3.67;3.67;;;;;19.27;59.50;100753.34;6241222;22;45424;-89
2021/07/12 01:51:54;;;;;;;;;5.00;3.00;;;;;19.28;59.24;100747.97;6241024;22;45339;-88
2021/07/12 01:54:31;;;;;;;;;4.33;4.33;;;;;19.27;59.59;100737.53;6241262;22;45390;-88
2021/07/12 01:57:05;;;;;;;;;4.67;4.67;;;;;19.24;59.75;100735.94;6213868;22;45295;-89
2021/07/12 01:59:52;;;;;;;;;5.00;4.00;;;;;19.27;59.73;100737.53;6176172;23;45409;-88
2021/07/12 02:02:19;;;;;;;;;4.00;4.00;;;;;19.25;59.48;100731.53;6175962;23;46144;-89
2021/07/12 02:04:47;;;;;;;;;3.67;3.67;;;;;19.24;59.70;100730.66;6178156;22;45399;-87
2021/07/12 02:07:14;;;;;;;;;3.00;3.00;;;;;19.26;59.71;100734.06;6176331;23;45338;-88
2021/07/12 02:09:41;;;;;;;;;4.00;3.67;;;;;19.25;59.85;100736.81;6176218;23;45362;-89
2021/07/12 02:12:08;;;;;;;;;3.00;3.00;;;;;19.29;59.56;100743.50;6175765;23;48376;-89
2021/07/12 02:14:33;;;;;;;;;6.00;4.00;;;;;19.26;59.34;100739.34;6176111;23;45307;-89
2021/07/12 02:17:01;;;;;;;;;3.00;3.00;;;;;19.26;59.88;100731.41;6178204;22;45249;-88
2021/07/12 02:19:29;;;;;;;;;2.67;2.67;;;;;19.32;59.65;100735.38;6176613;23;45393;-88
2021/07/12 02:21:56;;;;;;;;;4.33;4.00;;;;;19.28;59.60;100734.78;6175234;23;47166;-88
2021/07/12 02:24:22;;;;;;;;;3.33;3.33;;;;;19.30;59.70;100740.78;6175740;23;45929;-89
2021/07/12 02:26:50;;;;;;;;;5.00;5.00;;;;;19.30;59.92;100746.03;6178506;22;45220;-88
2021/07/12 02:29:18;;;;;;;;;3.33;3.33;;;;;19.30;59.93;100750.50;6178388;22;45335;-88
2021/07/12 02:31:44;;;;;;;;;3.67;3.67;;;;;19.30;59.93;100753.97;6176465;22;45687;-88
2021/07/12 02:34:11;;;;;;;;;3.00;3.00;;;;;19.29;59.67;100751.44;6177964;22;45453;-89
2021/07/12 02:36:37;;;;;;;;;4.33;4.33;;;;;19.33;60.12;100755.53;6175978;23;45631;-89
2021/07/12 02:39:07;;;;;;;;;3.33;3.33;;;;;19.31;59.79;100755.66;6177755;22;45327;-89
2021/07/12 02:41:33;;;;;;;;;4.33;4.00;;;;;19.31;59.69;100749.53;6177498;22;45661;-88
2021/07/12 02:44:00;;;;;;;;;3.00;3.00;;;;;19.31;59.83;100745.09;6176141;23;45360;-89
2021/07/12 02:46:29;;;;;;;;;3.33;3.33;;;;;19.30;59.64;100730.22;6177656;22;45288;-88
2021/07/12 02:48:58;;;;;;;;;5.00;3.33;;;;;19.31;60.15;100734.53;6176269;23;45408;-88
2021/07/12 02:51:50;;;;;;;;;4.00;4.00;;;;;19.35;59.94;100740.47;6177336;22;45373;-89
2021/07/12 02:54:20;;;;;;;;;5.00;4.00;;;;;19.34;60.10;100741.38;6240487;22;45322;-88
2021/07/12 02:56:46;;;;;;;;;4.00;4.00;;;;;19.34;59.82;100747.50;6240378;22;45198;-89
2021/07/12 02:59:12;;;;;;;;;5.00;5.00;;;;;19.39;59.79;100751.63;6241096;22;45355;-89
2021/07/12 03:01:38;;;;;;;;;3.33;3.33;;;;;19.41;59.99;100740.00;6239956;22;45542;-88
2021/07/12 03:04:03;;;;;;;;;4.00;4.00;;;;;19.39;60.42;100746.34;6241525;22;45168;-89
2021/07/12 03:06:32;;;;;;;;;6.00;4.00;;;;;19.40;60.17;100737.47;6240722;22;45413;-89
2021/07/12 03:09:10;;;;;;;;;4.00;3.00;;;;;19.43;60.30;100737.22;6241774;22;45509;-89
2021/07/12 03:11:43;;;;;;;;;3.00;3.00;;;;;19.43;60.28;100722.25;6240401;22;46228;-89
2021/07/12 03:14:18;;;;;;;;;5.67;3.00;;;;;19.40;60.48;100711.94;6240309;22;45409;-89
2021/07/12 03:16:45;;;;;;;;;3.67;3.33;;;;;19.41;60.57;100710.97;6240065;22;45404;-89
2021/07/12 03:19:21;;;;;;;;;6.00;3.00;;;;;19.43;60.39;100705.56;6240659;22;45625;-89
2021/07/12 03:21:48;;;;;;;;;5.00;5.00;;;;;19.42;60.47;100702.09;6240194;22;46344;-88
2021/07/12 03:24:16;;;;;;;;;4.67;3.67;;;;;19.41;60.39;100704.84;6240598;22;45264;-89
2021/07/12 03:26:44;;;;;;;;;6.67;5.00;;;;;19.36;60.60;100703.38;6241069;22;45434;-89
2021/07/12 03:29:13;;;;;;;;;4.00;4.00;;;;;19.41;60.63;100707.50;6241068;22;45331;-89
2021/07/12 03:31:39;;;;;;;;;4.67;4.00;;;;;19.36;60.60;100698.09;6196711;22;45547;-89
2021/07/12 03:34:05;;;;;;;;;4.33;3.67;;;;;19.33;60.63;100693.06;6177154;22;45380;-89
2021/07/12 03:36:32;;;;;;;;;6.33;6.33;;;;;19.35;60.94;100690.31;6175229;23;45364;-89
2021/07/12 03:38:59;;;;;;;;;6.00;4.33;;;;;19.32;61.25;100675.56;6177673;22;44686;-88
2021/07/12 03:41:25;;;;;;;;;5.33;4.00;;;;;19.32;60.73;100672.06;6177126;22;46353;-89
2021/07/12 03:43:51;;;;;;;;;5.67;5.67;;;;;19.31;61.16;100671.22;6174788;23;45341;-89
2021/07/12 03:46:17;;;;;;;;;4.00;4.00;;;;;19.28;61.12;100666.19;6177266;22;45225;-89
2021/07/12 03:48:45;;;;;;;;;4.67;4.67;;;;;19.28;60.71;100673.25;6175749;23;45335;-88
2021/07/12 03:51:15;;;;;;;;;3.67;3.67;;;;;19.30;60.86;100674.81;6175129;23;46951;-89
2021/07/12 03:53:40;;;;;;;;;4.67;4.67;;;;;19.30;60.87;100682.72;6176822;23;45246;-89
2021/07/12 03:56:07;;;;;;;;;5.67;4.00;;;;;19.25;60.89;100676.13;6177447;23;45312;-88
2021/07/12 03:58:33;;;;;;;;;8.67;6.00;;;;;19.24;61.26;100662.09;6177544;22;45266;-89
2021/07/12 04:00:59;;;;;;;;;5.00;4.00;;;;;19.28;61.09;100682.00;6176629;22;45595;-89
2021/07/12 04:03:24;;;;;;;;;4.00;4.00;;;;;19.23;61.04;100658.63;6175343;23;45801;-89
2021/07/12 04:05:49;;;;;;;;;3.00;3.00;;;;;19.23;61.32;100657.78;6174897;23;45424;-89
2021/07/12 04:08:15;;;;;;;;;5.67;4.00;;;;;19.23;60.92;100658.63;6175522;23;45522;-89
2021/07/12 04:10:40;;;;;;;;;5.00;3.00;;;;;19.24;61.15;100656.81;6177121;23;45272;-89
2021/07/12 04:13:06;;;;;;;;;6.67;6.67;;;;;19.23;61.06;100655.13;6177330;22;45384;-89
2021/07/12 04:15:32;;;;;;;;;5.33;3.33;;;;;19.28;61.19;100658.28;6174701;23;45248;-89
2021/07/12 04:17:57;;;;;;;;;7.00;5.00;;;;;19.26;61.14;100662.84;6175453;23;45291;-89
2021/07/12 04:20:23;;;;;;;;;4.67;4.67;;;;;19.26;61.24;100662.84;6174845;23;48216;-88
2021/07/12 04:22:48;;;;;;;;;4.00;4.00;;;;;19.23;61.25;100655.13;6174949;23;45428;-89
2021/07/12 04:25:14;;;;;;;;;4.00;4.00;;;;;19.23;61.56;100658.63;6177271;23;45387;-89
2021/07/12 04:27:41;;;;;;;;;5.00;3.67;;;;;19.24;61.23;100651.53;6175171;23;45503;-88
2021/07/12 04:30:08;;;;;;;;;3.67;3.00;;;;;19.26;61.29;100646.16;6176678;23;45520;-89
2021/07/12 04:32:34;;;;;;;;;4.33;3.33;;;;;19.25;61.45;100649.75;6176491;23;45312;-88
2021/07/12 04:35:00;;;;;;;;;7.00;5.33;;;;;19.22;61.42;100643.72;6175330;23;45472;-89
2021/07/12 04:37:25;;;;;;;;;4.00;3.67;;;;;19.19;61.25;100645.75;6175053;23;45396;-89
2021/07/12 04:39:50;;;;;;;;;5.00;3.00;;;;;19.25;61.36;100649.75;6175057;23;47103;-89
2021/07/12 04:42:16;;;;;;;;;4.00;4.00;;;;;19.20;61.45;100647.44;6174486;23;45373;-89
2021/07/12 04:44:41;;;;;;;;;3.00;3.00;;;;;19.22;61.41;100650.81;6175222;23;44717;-90
2021/07/12 04:47:07;;;;;;;;;4.00;3.67;;;;;19.18;61.13;100649.34;6174617;23;45392;-89
2021/07/12 04:49:33;;;;;;;;;3.00;3.00;;;;;19.20;61.01;100644.78;6175059;23;47119;-89
2021/07/12 04:51:59;;;;;;;;;2.67;2.67;;;;;19.18;61.31;100647.56;6174862;23;45373;-88
2021/07/12 04:54:25;;;;;;;;;2.33;2.33;;;;;19.18;60.90;100649.34;6175087;23;45250;-89
2021/07/12 04:56:50;;;;;;;;;5.33;3.00;;;;;19.19;61.06;100653.66;6177110;23;45361;-89
2021/07/12 04:59:17;;;;;;;;;3.33;3.33;;;;;19.16;61.29;100654.75;6176267;23;45309;-89
2021/07/12 05:01:45;;;;;;;;;4.33;4.00;;;;;19.20;61.52;100663.25;6174092;23;45518;-89
2021/07/12 05:04:10;;;;;;;;;2.67;2.67;;;;;19.23;61.21;100665.69;6177338;23;45454;-89
2021/07/12 05:06:36;;;;;;;;;2.67;2.67;;;;;19.19;60.98;100664.22;6177196;23;45421;-89
2021/07/12 05:09:02;;;;;;;;;3.33;3.33;;;;;19.20;60.82;100672.03;6178722;22;46261;-88
2021/07/12 05:11:29;;;;;;;;;3.00;3.00;;;;;19.20;60.80;100660.63;6178467;22;45395;-88
2021/07/12 05:13:55;;;;;;;;;3.00;3.00;;;;;19.20;60.86;100660.63;6178707;22;45402;-89
2021/07/12 05:16:21;;;;;;;;;3.00;3.00;;;;;19.22;61.48;100661.38;6176701;23;45254;-89
2021/07/12 05:18:49;;;;;;;;;4.00;2.67;;;;;19.21;61.70;100659.69;6178802;22;46386;-88
2021/07/12 05:21:15;;;;;;;;;3.33;3.33;;;;;19.19;61.05;100658.94;6178686;23;45423;-89
2021/07/12 05:23:41;;;;;;;;;4.00;4.00;;;;;19.21;61.28;100657.88;6178181;22;45372;-89
2021/07/12 05:26:07;;;;;;;;;3.00;3.00;;;;;19.20;61.62;100647.44;6179274;22;45340;-89
2021/07/12 05:28:33;;;;;;;;;4.67;3.00;;;;;19.21;61.89;100644.69;6176663;23;46591;-89
2021/07/12 05:30:58;;;;;;;;;2.67;2.67;;;;;19.23;61.72;100644.59;6178343;23;45292;-89
2021/07/12 05:33:24;;;;;;;;;3.33;3.00;;;;;19.26;61.63;100640.88;6178302;22;45340;-89
2021/07/12 05:35:49;;;;;;;;;3.00;2.00;;;;;19.23;61.64;100634.88;6179133;23;45233;-89
2021/07/12 05:38:15;;;;;;;;;3.00;2.67;;;;;19.25;61.96;100647.94;6178689;22;45148;-89
2021/07/12 05:40:40;;;;;;;;;3.67;3.00;;;;;19.27;62.01;100647.81;6178686;22;45193;-89
2021/07/12 05:43:08;;;;;;;;;4.67;3.33;;;;;19.28;61.95;100652.16;6178713;23;45258;-89
2021/07/12 05:45:34;;;;;;;;;3.00;3.00;;;;;19.25;62.20;100647.94;6178581;22;45398;-89
2021/07/12 05:47:59;;;;;;;;;8.00;4.00;;;;;19.22;62.07;100645.53;6178161;22;46072;-89
2021/07/12 05:50:25;;;;;;;;;3.00;3.00;;;;;19.23;62.14;100647.22;6178893;22;45232;-89
2021/07/12 05:52:50;;;;;;;;;4.33;4.33;;;;;19.22;62.26;100653.47;6178586;22;45272;-89
2021/07/12 05:55:16;;;;;;;;;6.33;4.33;;;;;19.16;61.71;100652.09;6176295;23;45439;-88
2021/07/12 05:57:41;;;;;;;;;4.00;3.33;;;;;19.11;62.26;100650.78;6176461;23;46871;-88
2021/07/12 06:00:09;;;;;;;;;6.67;5.00;;;;;19.05;62.10;100637.09;6176034;23;45431;-89
2021/07/12 06:02:34;;;;;;;;;4.67;1.67;;;;;19.04;62.13;100639.81;6178418;22;45225;-89
2021/07/12 06:05:00;;;;;;;;;4.67;4.67;;;;;19.03;62.20;100633.69;6178177;23;45214;-89
2021/07/12 06:07:25;;;;;;;;;4.00;4.00;;;;;19.07;62.39;100632.53;6178065;22;45139;-89
2021/07/12 06:09:51;;;;;;;;;3.00;3.00;;;;;19.07;62.55;100632.53;6178592;22;45175;-89
2021/07/12 06:12:16;;;;;;;;;6.33;5.00;;;;;19.11;62.66;100632.31;6176556;23;45290;-90
2021/07/12 06:14:42;;;;;;;;;3.00;3.00;;;;;19.09;62.77;100628.00;6178577;23;45169;-89
2021/07/12 06:17:07;;;;;;;;;3.33;3.33;;;;;19.11;62.78;100634.94;6177319;23;45313;-89
2021/07/12 06:19:33;;;;;;;;;5.00;5.00;;;;;19.14;62.43;100639.97;6175882;23;45266;-89
2021/07/12 06:21:58;;;;;;;;;4.00;4.00;;;;;19.11;62.70;100630.50;6176544;23;45229;-89
2021/07/12 06:24:24;;;;;;;;;8.00;4.00;;;;;19.16;63.15;100635.44;6179096;23;45284;-89
2021/07/12 06:26:49;;;;;;;;;3.67;3.33;;;;;19.15;62.96;100636.38;6177493;22;45960;-90
2021/07/12 06:29:15;;;;;;;;;8.00;7.00;;;;;19.09;62.87;100633.28;6176076;23;45420;-89
2021/07/12 06:31:40;;;;;;;;;6.00;6.00;;;;;19.12;63.09;100634.00;6177967;22;45350;-89
2021/07/12 06:34:05;;;;;;;;;6.33;6.00;;;;;19.11;63.36;100627.03;6178197;22;45279;-88
2021/07/12 06:36:31;;;;;;;;;6.00;4.00;;;;;19.15;62.95;100633.75;6177658;23;45790;-89
2021/07/12 06:38:57;;;;;;;;;5.00;5.00;;;;;19.15;63.55;100628.47;6177629;22;45434;-89
2021/07/12 06:41:22;;;;;;;;;9.00;7.33;;;;;19.13;63.34;100628.59;6178164;22;45364;-89
2021/07/12 06:43:48;;;;;;;;;5.67;5.00;;;;;19.16;62.97;100612.53;6176379;23;44904;-89
2021/07/12 06:46:14;;;;;;;;;6.00;5.67;;;;;19.13;63.27;100604.00;6176148;23;46992;-89
2021/07/12 06:48:40;;;;;;;;;4.00;4.00;;;;;19.11;63.46;100590.13;6174809;23;45492;-88
2021/07/12 06:51:06;;;;;;;;;8.33;6.00;;;;;19.08;62.92;100589.38;6177474;22;45265;-89
2021/07/12 06:53:31;;;;;;;;;6.00;4.00;;;;;19.10;62.91;100586.63;6177877;23;45139;-88
2021/07/12 06:55:57;;;;;;;;;5.00;5.00;;;;;19.11;63.42;100590.94;6177737;23;45261;-89
2021/07/12 06:58:22;;;;;;;;;5.00;4.67;;;;;19.07;63.31;100592.16;6177625;23;45282;-88
2021/07/12 07:00:47;;;;;;;;;5.67;4.00;;;;;19.08;63.42;100584.09;6177909;22;45493;-88
2021/07/12 07:03:13;;;;;;;;;3.33;3.33;;;;;19.09;63.45;100593.72;6175800;23;45482;-89
2021/07/12 07:05:38;;;;;;;;;5.00;4.33;;;;;19.07;63.73;100592.16;6177614;23;45545;-88
2021/07/12 07:08:04;;;;;;;;;6.00;5.00;;;;;19.07;63.53;100603.50;6177158;22;45375;-88
2021/07/12 07:10:29;;;;;;;;;4.00;4.00;;;;;19.10;63.62;100605.09;6175804;23;45329;-88
2021/07/12 07:12:55;;;;;;;;;5.00;5.00;;;;;19.06;63.74;100604.47;6177894;23;45404;-89
2021/07/12 07:15:21;;;;;;;;;5.00;5.00;;;;;19.06;63.59;100603.63;6177125;22;45360;-88
2021/07/12 07:17:46;;;;;;;;;5.00;5.00;;;;;19.10;63.93;100607.72;6176808;23;45730;-89
2021/07/12 07:20:12;;;;;;;;;5.00;4.33;;;;;19.12;64.19;100612.88;6177679;23;45743;-88
2021/07/12 07:22:41;;;;;;;;;6.33;3.67;;;;;19.08;64.28;100605.19;6177982;22;45379;-89
2021/07/12 07:25:06;;;;;;;;;6.00;6.00;;;;;19.08;63.99;100607.84;6176580;23;45646;-89
2021/07/12 07:27:32;;;;;;;;;6.00;5.00;;;;;19.14;63.72;100619.72;6176541;22;45354;-89
2021/07/12 07:29:59;;;;;;;;;5.67;5.67;;;;;19.14;63.73;100629.44;6176414;23;45324;-88
2021/07/12 07:32:24;;;;;;;;;5.67;5.00;;;;;19.10;64.36;100647.28;6175706;23;45562;-88
2021/07/12 07:34:50;;;;;;;;;8.00;6.00;;;;;19.04;64.16;100638.03;6176571;22;45448;-88
2021/07/12 07:37:15;;;;;;;;;9.00;8.00;;;;;19.06;64.10;100640.53;6177421;23;45277;-89
2021/07/12 07:39:42;;;;;;;;;5.67;5.00;;;;;19.04;64.20;100624.00;6177187;23;45371;-89
2021/07/12 07:42:08;;;;;;;;;6.00;5.00;;;;;19.00;64.30;100610.19;6175785;23;45432;-90
2021/07/12 07:44:34;;;;;;;;;5.00;5.00;;;;;19.02;64.55;100607.44;6174720;23;47406;-89
2021/07/12 07:47:00;;;;;;;;;6.00;5.67;;;;;19.08;64.55;100617.56;6177916;22;45634;-90
2021/07/12 07:49:25;;;;;;;;;8.67;7.33;;;;;19.05;64.10;100618.63;6175119;23;45282;-89
2021/07/12 07:51:51;;;;;;;;;8.67;7.00;;;;;19.06;64.55;100630.00;6175886;23;45194;-89
2021/07/12 07:54:16;;;;;;;;;7.00;6.00;;;;;19.05;64.46;100631.81;6174893;23;46839;-89
2021/07/12 07:56:42;;;;;;;;;8.00;5.00;;;;;19.07;65.03;100644.88;6177088;23;45391;-89
2021/07/12 07:59:08;;;;;;;;;8.67;8.00;;;;;19.02;64.55;100636.44;6175468;23;45207;-89
2021/07/12 08:01:34;;;;;;;;;7.00;7.00;;;;;19.04;65.03;100621.38;6175623;23;45348;-89
2021/07/12 08:04:00;;;;;;;;;7.00;7.00;;;;;19.07;65.13;100631.69;6175291;23;47183;-89
2021/07/12 08:06:28;;;;;;;;;6.00;6.00;;;;;19.12;65.38;100642.72;6177358;23;45414;-90
2021/07/12 08:08:54;;;;;;;;;8.67;7.00;;;;;19.12;65.10;100636.63;6175338;23;45427;-90
2021/07/12 08:11:19;;;;;;;;;8.25;6.75;;;;;19.12;64.86;100626.91;6177380;23;45356;-90
2021/07/12 08:13:50;;;;;;;;;7.33;7.00;;;;;19.16;65.60;100624.91;6174689;23;48120;-89
2021/07/12 08:16:15;;;;;;;;;6.00;6.00;;;;;19.17;65.77;100622.13;6175029;23;45685;-89
2021/07/12 08:18:43;;;;;;;;;8.00;7.33;;;;;19.21;65.32;100612.22;6174633;22;45759;-89
2021/07/12 08:21:11;;;;;;;;;6.33;6.00;;;;;19.30;65.61;100632.59;6171654;23;45580;-89
2021/07/12 08:23:37;;;;;;;;;7.67;6.67;;;;;19.32;65.55;100625.44;6175325;23;45279;-89
2021/07/12 08:26:02;;;;;;;;;9.75;8.00;;;;;19.35;65.69;100619.09;6174027;22;45248;-89
2021/07/12 08:28:29;;;;;;;;;7.00;5.67;;;;;19.42;65.76;100625.59;6172811;23;45208;-89
2021/07/12 08:30:55;;;;;;;;;9.67;8.00;;;;;19.50;65.79;100632.91;6172749;23;45337;-89
2021/07/12 08:33:21;;;;;;;;;8.00;7.33;;;;;19.54;65.42;100633.53;6171982;23;46092;-89
2021/07/12 08:35:47;;;;;;;;;7.00;7.00;;;;;19.54;65.29;100636.16;6174907;23;45310;-89
2021/07/12 08:38:13;;;;;;;;;11.00;8.00;;;;;19.60;65.71;100648.88;6171922;23;45478;-90
2021/07/12 08:40:39;;;;;;;;;9.67;6.00;;;;;19.65;65.58;100645.91;6173891;23;45463;-88
2021/07/12 08:43:04;;;;;;;;;7.00;7.00;;;;;19.70;65.39;100654.31;6174308;23;46868;-89
2021/07/12 08:45:30;;;;;;;;;8.67;7.67;;;;;19.74;65.65;100653.97;6175441;22;45191;-89
2021/07/12 08:47:56;;;;;;;;;9.67;8.00;;;;;19.76;65.64;100651.19;6172921;23;45271;-89
2021/07/12 08:50:24;;;;;;;;;9.33;7.67;;;;;19.79;65.77;100658.03;6177056;23;45267;-91
2021/07/12 08:52:50;;;;;;;;;6.67;6.33;;;;;19.83;65.38;100655.06;6175379;23;45707;-89
2021/07/12 08:55:17;;;;;;;;;10.67;8.00;;;;;19.85;65.16;100647.84;6175289;23;45398;-89
2021/07/12 08:57:55;;;;;;;;;8.00;8.00;;;;;19.87;65.67;100655.66;6175503;22;45465;-89
2021/07/12 09:00:45;;;;;;;;;8.00;7.67;;;;;19.84;65.45;100637.41;6175102;23;45182;-90
2021/07/12 09:03:18;;;;;;;;;8.00;7.00;;;;;19.90;65.01;100645.69;6176179;23;45475;-88
2021/07/12 09:06:11;;;;;;;;;9.67;9.00;;;;;19.88;64.85;100637.06;6175317;22;45435;-88
2021/07/12 09:08:47;;;;;;;;;8.33;6.00;;;;;19.92;65.08;100656.16;6177728;22;46003;-89
2021/07/12 09:11:31;;;;;;;;;9.00;7.67;;;;;19.91;65.00;100654.47;6176990;22;45455;-89
2021/07/12 09:14:08;;;;;;;;;8.33;8.33;;;;;19.83;64.74;100643.66;6174224;23;47118;-89
2021/07/12 09:16:38;;;;;;;;;9.67;7.00;;;;;19.82;64.87;100652.53;6173466;23;45307;-88
2021/07/12 09:19:13;;;;;;;;;7.00;7.00;;;;;19.81;64.63;100662.25;6173390;23;45672;-89
2021/07/12 09:21:51;;;;;;;;;8.33;8.33;;;;;19.76;64.95;100667.88;6173795;23;45331;-89
2021/07/12 09:24:27;;;;;;;;;8.50;8.25;;;;;19.75;65.08;100674.13;6176458;22;45477;-89
2021/07/12 09:26:59;;;;;;;;;11.33;9.33;;;;;19.72;64.92;100677.00;6173512;23;44988;-90
2021/07/12 09:29:49;;;;;;;;;12.67;10.00;;;;;19.72;65.20;100682.28;6169881;23;45413;-89
2021/07/12 09:32:18;;;;;;;;;10.25;9.25;;;;;19.67;65.42;100680.94;6171803;23;45588;-90
2021/07/12 09:34:49;;;;;;;;;8.00;8.00;;;;;19.70;65.31;100681.56;6170698;23;46349;-90
2021/07/12 09:37:23;;;;;;;;;9.00;9.00;;;;;19.71;65.50;100690.28;6169991;23;45531;-89
2021/07/12 09:39:54;;;;;;;;;8.67;8.67;;;;;19.72;65.61;100686.72;6171729;23;45336;-90
2021/07/12 09:42:22;;;;;;;;;8.33;8.33;;;;;19.76;65.63;100681.09;6171441;23;45764;-90
2021/07/12 09:44:50;;;;;;;;;7.33;7.33;;;;;19.80;65.86;100697.53;6174465;22;46529;-90
2021/07/12 09:47:22;;;;;;;;;8.33;7.33;;;;;19.81;65.98;100704.50;6176983;22;45343;-89
2021/07/12 09:49:52;;;;;;;;;8.67;7.00;;;;;19.79;65.73;100695.00;6171686;22;45276;-90
2021/07/12 09:52:19;;;;;;;;;8.67;7.33;;;;;19.81;66.03;100696.56;6175311;22;45527;-90
2021/07/12 09:54:54;;;;;;;;;10.00;9.67;;;;;19.81;65.90;100699.22;6172306;23;47176;-90
2021/07/12 09:57:25;;;;;;;;;9.00;8.00;;;;;19.82;65.98;100697.41;6176286;23;48858;-91
2021/07/12 09:59:56;;;;;;;;;9.25;9.25;;;;;19.78;65.61;100694.19;6171508;23;45623;-90
2021/07/12 10:02:26;;;;;;;;;10.50;8.50;;;;;19.84;66.20;100706.06;6171416;23;45261;-91
2021/07/12 10:04:59;;;;;;;;;9.00;8.33;;;;;19.83;65.70;100699.94;6172323;23;47009;-91
2021/07/12 10:07:31;;;;;;;;;11.00;8.00;;;;;19.84;65.83;100696.34;6174750;23;45382;-91
2021/07/12 10:09:58;;;;;;;;;11.00;10.67;;;;;19.87;66.08;100697.91;6175493;22;45509;-90
2021/07/12 10:12:25;;;;;;;;;9.33;8.00;;;;;19.88;66.06;100702.22;6175063;23;45583;-90
2021/07/12 10:14:51;;;;;;;;;6.00;6.00;;;;;19.87;66.14;100695.28;6173228;23;47069;-89
2021/07/12 10:17:16;;;;;;;;;6.67;6.67;;;;;19.93;66.18;100688.66;6174423;23;44737;-89
2021/07/12 10:19:45;;;;;;;;;9.33;9.33;;;;;20.05;66.48;100700.13;6174962;23;45341;-90
2021/07/12 10:22:12;;;;;;;;;9.67;9.67;;;;;20.11;66.36;100697.00;6178175;22;45359;-89
2021/07/12 10:24:44;;;;;;;;;7.00;7.00;;;;;20.21;66.55;100690.06;6175313;23;46913;-89
2021/07/12 10:27:21;;;;;;;;;9.00;7.00;;;;;20.30;66.40;100691.16;6176124;23;45354;-89
2021/07/12 10:29:48;;;;;;;;;7.00;7.00;;;;;20.36;66.43;100685.38;6178090;22;45234;-90
2021/07/12 10:32:36;;;;;;;;;6.00;6.00;;;;;20.54;66.51;100676.94;6176127;23;45349;-89
2021/07/12 10:35:01;;;;;;;;;6.00;6.00;;;;;20.76;66.39;100683.16;6175299;23;47199;-88
2021/07/12 10:37:38;;;;;;;;;8.00;8.00;;;;;20.89;66.00;100675.97;6177223;22;45452;-89
2021/07/12 10:40:17;;;;;;;;;10.33;10.33;;;;;20.95;64.91;100683.41;6176135;23;45317;-88
2021/07/12 10:42:46;;;;;;;;;6.00;6.00;;;;;21.10;66.22;100691.03;6178024;23;45163;-89
2021/07/12 10:45:16;;;;;;;;;8.33;8.00;;;;;21.30;66.47;100694.69;6175253;23;47012;-88
2021/07/12 10:47:45;;;;;;;;;9.00;8.67;;;;;21.48;65.95;100681.75;6177638;22;45217;-89
2021/07/12 10:50:46;;;;;;;;;10.00;10.00;;;;;21.73;65.69;100681.53;6177781;22;45297;-88
2021/07/12 10:53:14;;;;;;;;;9.33;8.33;;;;;21.90;65.36;100677.47;6178216;22;45226;-89
2021/07/12 10:55:44;;;;;;;;;7.67;7.00;;;;;22.04;65.13;100668.34;6177429;22;45443;-89
2021/07/12 10:58:21;;;;;;;;;10.67;9.00;;;;;22.20;64.55;100670.47;6177444;23;45217;-88
2021/07/12 11:00:49;;;;;;;;;7.00;7.00;;;;;22.37;64.64;100654.91;6175342;23;45430;-89
2021/07/12 11:03:37;;;;;;;;;8.33;8.00;;;;;22.60;64.25;100660.03;6177719;22;45422;-89
2021/07/12 11:06:07;;;;;;;;;9.67;9.67;;;;;22.74;64.43;100649.06;6174916;23;47023;-89
2021/07/12 11:08:59;;;;;;;;;9.33;9.33;;;;;23.01;63.96;100655.47;6175744;23;45216;-89
2021/07/12 11:11:24;;;;;;;;;7.33;7.00;;;;;23.28;63.74;100645.97;6179301;22;45311;-89
2021/07/12 11:14:01;;;;;;;;;7.00;7.00;;;;;23.48;63.13;100630.88;6177405;23;45220;-89
2021/07/12 11:16:41;;;;;;;;;9.00;7.00;;;;;23.69;62.97;100637.84;6177207;22;45988;-88
2021/07/12 11:19:27;;;;;;;;;7.00;7.00;;;;;23.83;61.88;100639.19;6175193;23;45344;-88
2021/07/12 11:21:54;;;;;;;;;9.00;9.00;;;;;23.84;61.72;100630.25;6176786;23;45300;-88
2021/07/12 11:24:24;;;;;;;;;6.00;6.00;;;;;23.82;61.69;100628.72;6177859;23;45318;-88
2021/07/12 11:26:52;;;;;;;;;7.67;7.67;;;;;23.76;61.25;100622.16;6177144;22;46298;-88
2021/07/12 11:29:28;;;;;;;;;8.33;6.33;;;;;23.69;61.04;100621.09;6177198;22;45333;-88
2021/07/12 11:31:57;;;;;;;;;7.67;5.67;;;;;23.67;61.38;100634.50;6177003;22;45292;-89
2021/07/12 11:34:27;;;;;;;;;7.00;7.00;;;;;23.60;61.27;100628.91;6175474;23;45267;-88